Time;durP1;ratioP1;P1;durP2;ratioP2;P2;SDS_P1;SDS_P2;PMS_P1;PMS_P2;Temp;Humidity;BMP_temperature;BMP_pressure;BME280_temperature;BME280_humidity;BME280_pressure;Samples;Min_cycle;Max_cycle;Signal;HPM_P1;HPM_P2
2022/01/04 00:01:32;;;;;;;9.02;1.42;;;;;;;18.69;57.48;100186.91;4901296;29;20051;-61
2022/01/04 00:03:58;;;;;;;9.38;1.45;;;;;;;18.68;57.63;100190.56;4906898;29;20644;-61
2022/01/04 00:06:23;;;;;;;9.90;1.40;;;;;;;18.61;58.29;100172.75;4911489;29;20044;-61
2022/01/04 00:08:49;;;;;;;7.38;1.38;;;;;;;18.67;57.83;100172.13;4911483;29;20134;-61
2022/01/04 00:11:17;;;;;;;8.75;1.67;;;;;;;18.64;57.79;100172.44;4920157;29;20122;-61
2022/01/04 00:13:43;;;;;;;8.13;1.60;;;;;;;18.65;58.13;100168.81;4930550;29;20071;-61
2022/01/04 00:16:10;;;;;;;8.68;1.85;;;;;;;18.65;58.17;100164.31;4929906;29;20052;-61
2022/01/04 00:18:36;;;;;;;7.05;1.65;;;;;;;18.62;58.08;100156.66;4930699;29;20043;-61
2022/01/04 00:21:01;;;;;;;10.50;1.63;;;;;;;18.61;57.37;100154.97;4930267;29;20051;-62
2022/01/04 00:23:27;;;;;;;12.60;1.85;;;;;;;18.58;57.94;100142.00;4930785;29;20065;-61
2022/01/04 00:25:52;;;;;;;9.50;1.42;;;;;;;18.52;57.67;100132.03;4930898;29;20591;-61
2022/01/04 00:28:17;;;;;;;7.85;1.60;;;;;;;18.53;57.85;100130.19;4933754;29;20036;-61
2022/01/04 00:30:43;;;;;;;6.72;1.60;;;;;;;18.53;57.43;100125.72;4922091;29;20477;-61
2022/01/04 00:33:10;;;;;;;10.00;1.50;;;;;;;18.54;57.46;100118.56;4895677;29;20160;-62
2022/01/04 00:35:35;;;;;;;10.65;1.80;;;;;;;18.50;57.94;100118.06;4910343;29;20051;-61
2022/01/04 00:38:01;;;;;;;9.10;1.70;;;;;;;18.53;57.41;100111.59;4879205;29;20040;-62
2022/01/04 00:40:26;;;;;;;6.30;1.20;;;;;;;18.51;57.81;100103.78;4896150;29;20059;-61
2022/01/04 00:42:55;;;;;;;10.75;1.50;;;;;;;18.47;57.41;100097.13;4895969;29;20063;-61
2022/01/04 00:45:20;;;;;;;5.95;1.17;;;;;;;18.45;57.92;100097.25;4895617;29;20083;-61
2022/01/04 00:49:09;;;;;;;7.72;1.58;;;;;;;18.45;57.43;100099.09;4895705;29;20434;-61
2022/01/04 00:50:32;;;;;;;8.18;1.50;;;;;;;18.45;57.71;100091.94;4895639;29;20468;-61
2022/01/04 00:52:58;;;;;;;11.73;1.73;;;;;;;18.48;58.03;100080.19;4895765;29;20187;-61
2022/01/04 00:55:24;;;;;;;9.70;1.58;;;;;;;18.43;57.07;100085.16;4895419;29;20045;-61
2022/01/04 00:57:49;;;;;;;7.65;1.33;;;;;;;18.43;57.57;100086.00;4910206;29;20043;-61
2022/01/04 01:00:15;;;;;;;7.82;1.55;;;;;;;18.38;57.27;100085.63;4895128;29;20052;-61
2022/01/04 01:02:41;;;;;;;8.50;1.85;;;;;;;18.33;57.81;100085.22;4895744;29;20047;-61
2022/01/04 01:05:07;;;;;;;9.63;1.50;;;;;;;18.40;57.81;100090.78;4895364;29;20041;-61
2022/01/04 01:07:34;;;;;;;10.38;1.90;;;;;;;18.40;57.77;100086.31;4895478;29;20036;-61
2022/01/04 01:12:28;;;;;;;7.15;1.40;;;;;;;18.37;57.77;100073.34;4932166;29;20048;-61
2022/01/04 01:14:53;;;;;;;7.10;1.73;;;;;;;18.40;57.24;100067.72;4933021;29;20520;-61
2022/01/04 01:17:19;;;;;;;9.15;1.90;;;;;;;18.35;57.15;100066.50;4933044;29;20071;-61
2022/01/04 01:19:44;;;;;;;6.75;1.60;;;;;;;18.39;57.71;100057.22;4933140;29;20054;-61
2022/01/04 01:22:10;;;;;;;9.43;1.67;;;;;;;18.33;57.43;100058.69;4932543;29;20050;-61
2022/01/04 01:24:35;;;;;;;7.45;1.48;;;;;;;18.29;57.70;100062.66;4933051;29;20067;-61
2022/01/04 01:27:00;;;;;;;5.95;1.33;;;;;;;18.30;57.56;100058.16;4932727;29;20139;-64
2022/01/04 01:29:28;;;;;;;7.30;1.30;;;;;;;18.23;57.69;100050.00;4915981;29;20416;-61
2022/01/04 01:31:53;;;;;;;7.43;1.40;;;;;;;18.30;57.81;100050.19;4890620;29;20505;-61
2022/01/04 01:34:19;;;;;;;8.27;1.50;;;;;;;18.26;57.52;100050.50;4894848;29;20132;-61
2022/01/04 01:36:44;;;;;;;6.78;1.45;;;;;;;18.26;57.34;100047.03;4895402;29;20072;-61
2022/01/04 01:39:09;;;;;;;6.72;1.30;;;;;;;18.22;57.31;100049.16;4894329;29;20048;-61
2022/01/04 01:41:35;;;;;;;8.30;1.45;;;;;;;18.25;57.40;100040.91;4895110;29;20045;-61
2022/01/04 01:44:00;;;;;;;6.40;1.33;;;;;;;18.23;57.29;100037.56;4894665;29;20048;-65
2022/01/04 01:46:26;;;;;;;8.38;1.58;;;;;;;18.26;57.06;100031.94;4894832;29;20055;-61
2022/01/04 01:48:51;;;;;;;8.48;1.35;;;;;;;18.22;57.61;100030.59;4874655;29;20041;-61
2022/01/04 01:51:17;;;;;;;7.03;1.45;;;;;;;18.18;57.52;100023.94;4875765;29;20072;-61
2022/01/04 01:53:43;;;;;;;10.70;2.10;;;;;;;18.16;57.00;100033.88;4886746;29;20072;-61
2022/01/04 01:56:09;;;;;;;8.07;1.40;;;;;;;18.22;57.26;100021.78;4893210;29;20573;-61
2022/01/04 01:58:34;;;;;;;8.55;1.65;;;;;;;18.17;57.07;100018.75;4886733;29;20048;-61
2022/01/04 02:01:00;;;;;;;6.18;1.58;;;;;;;18.12;57.16;100021.91;4882076;29;20878;-61
2022/01/04 02:03:25;;;;;;;7.57;1.40;;;;;;;18.14;57.46;100014.59;4894448;29;20047;-61
2022/01/04 02:05:51;;;;;;;7.72;1.30;;;;;;;18.19;57.23;100012.31;4894641;29;20044;-61
2022/01/04 02:08:17;;;;;;;5.43;1.25;;;;;;;18.16;57.34;99999.34;4894325;29;20063;-61
2022/01/04 02:10:42;;;;;;;6.43;1.30;;;;;;;18.12;57.00;99994.53;4881983;29;20151;-61
2022/01/04 02:13:08;;;;;;;8.48;1.67;;;;;;;18.12;57.31;99987.41;4911632;29;20040;-61
2022/01/04 02:15:33;;;;;;;6.63;1.38;;;;;;;18.13;57.58;99989.06;4913530;29;20064;-61
2022/01/04 02:17:59;;;;;;;9.20;1.35;;;;;;;18.09;57.06;99982.41;4912031;29;20083;-61
2022/01/04 02:20:24;;;;;;;6.72;1.42;;;;;;;18.06;57.59;99976.56;4911614;29;20141;-61
2022/01/04 02:22:50;;;;;;;5.40;1.25;;;;;;;18.07;57.41;99978.22;4913032;29;20429;-61
2022/01/04 02:25:15;;;;;;;7.10;1.40;;;;;;;18.04;57.35;99974.88;4912958;29;20049;-61
2022/01/04 02:27:41;;;;;;;6.82;1.33;;;;;;;18.00;57.52;99967.41;4909221;29;20032;-61
2022/01/04 02:30:08;;;;;;;7.30;1.63;;;;;;;18.04;57.13;99976.72;4875090;29;20072;-62
2022/01/04 02:32:34;;;;;;;6.28;1.30;;;;;;;18.08;56.96;99975.41;4875502;29;20458;-61
2022/01/04 02:34:59;;;;;;;5.50;1.20;;;;;;;18.08;57.03;99970.09;4875396;29;20132;-61
2022/01/04 02:37:26;;;;;;;6.43;1.23;;;;;;;18.04;56.84;99964.28;4875016;29;20075;-61
2022/01/04 02:39:52;;;;;;;7.90;1.30;;;;;;;18.06;56.83;99961.47;4875213;29;20137;-61
2022/01/04 02:42:17;;;;;;;6.90;1.38;;;;;;;18.07;56.82;99957.81;4875193;29;20045;-61
2022/01/04 02:44:43;;;;;;;6.50;1.10;;;;;;;18.02;57.14;99955.66;4876225;29;20382;-61
2022/01/04 02:47:08;;;;;;;6.88;1.55;;;;;;;18.01;57.25;99945.19;4879852;29;20732;-61
2022/01/04 02:49:34;;;;;;;6.00;1.20;;;;;;;18.04;56.73;99937.72;4893253;29;20044;-61
2022/01/04 02:51:59;;;;;;;7.22;1.27;;;;;;;17.99;57.11;99929.44;4894095;29;20055;-61
2022/01/04 02:54:24;;;;;;;4.30;0.93;;;;;;;17.96;57.18;99942.19;4893340;29;20535;-61
2022/01/04 02:56:50;;;;;;;5.65;1.20;;;;;;;18.01;57.03;99929.25;4893674;29;20398;-61
2022/01/04 02:59:15;;;;;;;6.20;1.20;;;;;;;17.95;57.24;99921.94;4893150;29;20048;-61
2022/01/04 03:01:41;;;;;;;8.10;1.60;;;;;;;17.93;57.15;99926.59;4893577;29;20039;-61
2022/01/04 03:04:07;;;;;;;6.40;1.23;;;;;;;17.92;57.02;99924.91;4893125;29;20505;-62
2022/01/04 03:06:34;;;;;;;6.68;1.20;;;;;;;17.99;56.68;99921.47;4893491;29;20048;-61
2022/01/04 03:08:59;;;;;;;4.93;1.30;;;;;;;17.97;56.83;99914.66;4893395;29;20045;-61
2022/01/04 03:11:25;;;;;;;7.35;1.35;;;;;;;17.92;57.32;99912.44;4920730;29;20479;-61
2022/01/04 03:13:50;;;;;;;6.60;1.33;;;;;;;17.93;57.09;99900.03;4931097;29;20074;-61
2022/01/04 03:16:16;;;;;;;6.15;1.35;;;;;;;17.95;56.95;99900.69;4930729;29;20079;-61
2022/01/04 03:19:02;;;;;;;4.38;0.95;;;;;;;17.95;56.82;99896.22;4931078;29;20070;-61
2022/01/04 03:21:26;;;;;;;5.22;1.10;;;;;;;17.92;57.26;99885.09;4927417;29;20039;-61
2022/01/04 03:23:52;;;;;;;6.13;1.40;;;;;;;17.88;57.03;99873.16;4893187;29;20068;-61
2022/01/04 03:26:17;;;;;;;7.78;1.45;;;;;;;17.86;57.10;99870.63;4892891;29;20045;-61
2022/01/04 03:28:43;;;;;;;6.32;1.15;;;;;;;17.94;56.92;99865.38;4893443;29;20047;-61
2022/01/04 03:31:08;;;;;;;7.07;1.17;;;;;;;17.86;56.81;99862.69;4892983;29;20752;-61
2022/01/04 03:33:34;;;;;;;5.00;1.35;;;;;;;17.86;57.02;99864.50;4893234;29;20040;-61
2022/01/04 03:36:01;;;;;;;6.78;1.30;;;;;;;17.83;56.76;99857.72;4893059;29;20128;-61
2022/01/04 03:38:26;;;;;;;7.28;1.30;;;;;;;17.88;57.13;99844.78;4892977;29;20091;-61
2022/01/04 03:40:51;;;;;;;6.05;1.02;;;;;;;17.90;56.87;99848.13;4893121;29;20501;-61
2022/01/04 03:43:17;;;;;;;5.65;1.17;;;;;;;17.89;56.82;99846.44;4892721;29;20053;-61
2022/01/04 03:45:42;;;;;;;5.07;1.13;;;;;;;17.83;56.90;99851.56;4893046;29;20398;-61
2022/01/04 03:48:08;;;;;;;8.57;1.33;;;;;;;17.77;56.81;99840.59;4892475;29;20060;-61
2022/01/04 03:50:33;;;;;;;7.55;1.35;;;;;;;17.79;57.09;99843.91;4892961;29;20072;-61
2022/01/04 03:52:59;;;;;;;5.00;1.00;;;;;;;17.83;56.91;99847.09;4903212;29;20056;-61
2022/01/04 03:55:24;;;;;;;6.18;0.90;;;;;;;17.78;57.15;99830.81;4894116;29;20505;-61
2022/01/04 03:57:49;;;;;;;6.55;1.15;;;;;;;17.77;57.02;99819.38;4891595;29;20117;-61
2022/01/04 04:00:15;;;;;;;6.22;1.35;;;;;;;17.79;56.52;99814.72;4892622;29;20651;-61
2022/01/04 04:02:40;;;;;;;6.28;1.38;;;;;;;17.76;56.96;99812.34;4896389;29;20055;-61
2022/01/04 04:05:06;;;;;;;7.85;1.17;;;;;;;17.76;56.90;99811.53;4896426;29;20079;-62
2022/01/04 04:07:32;;;;;;;7.30;1.55;;;;;;;17.79;56.80;99811.25;4896898;29;20044;-61
2022/01/04 04:09:57;;;;;;;4.88;1.17;;;;;;;17.77;56.97;99813.25;4896442;29;20172;-61
2022/01/04 04:12:23;;;;;;;6.95;1.15;;;;;;;17.68;56.92;99804.38;4931735;29;20047;-61
2022/01/04 04:14:49;;;;;;;7.32;1.30;;;;;;;17.70;56.98;99807.69;4934412;29;20043;-61
2022/01/04 04:17:14;;;;;;;5.80;1.27;;;;;;;17.72;57.02;99810.19;4933951;29;20071;-61
2022/01/04 04:19:40;;;;;;;6.32;1.20;;;;;;;17.74;56.59;99803.75;4934264;29;20047;-61
2022/01/04 04:22:05;;;;;;;7.70;1.20;;;;;;;17.75;56.96;99816.00;4899695;29;20049;-61
2022/01/04 04:24:30;;;;;;;5.68;1.10;;;;;;;17.73;56.87;99799.41;4896412;29;20144;-61
2022/01/04 04:26:56;;;;;;;6.15;1.08;;;;;;;17.72;56.57;99789.81;4896408;29;20635;-61
2022/01/04 04:29:21;;;;;;;6.75;1.48;;;;;;;17.67;57.23;99791.25;4896070;29;20045;-61
2022/01/04 04:31:47;;;;;;;5.38;1.13;;;;;;;17.71;56.83;99777.53;4896200;29;20045;-61
2022/01/04 04:34:12;;;;;;;5.43;1.00;;;;;;;17.72;56.88;99773.88;4895744;29;20076;-61
2022/01/04 04:36:37;;;;;;;7.30;1.20;;;;;;;17.69;56.51;99778.69;4896118;29;20064;-61
2022/01/04 04:39:03;;;;;;;5.88;1.25;;;;;;;17.69;56.58;99784.00;4895639;29;20096;-61
2022/01/04 04:41:29;;;;;;;5.00;1.33;;;;;;;17.69;56.79;99771.56;4896179;29;20040;-61
2022/01/04 04:43:54;;;;;;;8.13;1.52;;;;;;;17.64;56.50;99765.88;4896253;29;20055;-61
2022/01/04 04:46:22;;;;;;;5.10;1.35;;;;;;;17.67;56.79;99770.88;4895575;29;20044;-61
2022/01/04 04:48:48;;;;;;;5.95;1.10;;;;;;;17.63;56.77;99758.94;4895718;29;20048;-61
2022/01/04 04:51:13;;;;;;;4.25;0.88;;;;;;;17.66;56.83;99763.91;4895534;29;20041;-61
2022/01/04 04:53:39;;;;;;;7.13;1.23;;;;;;;17.65;56.65;99756.97;4895804;29;20131;-61
2022/01/04 04:56:04;;;;;;;4.82;1.13;;;;;;;17.62;56.68;99751.16;4895464;29;20500;-61
2022/01/04 04:58:29;;;;;;;7.00;1.10;;;;;;;17.65;56.53;99756.97;4895732;29;20139;-61
2022/01/04 05:00:55;;;;;;;4.38;1.08;;;;;;;17.62;56.61;99767.88;4895696;29;20127;-61
2022/01/04 05:03:20;;;;;;;5.55;1.17;;;;;;;17.63;56.70;99769.53;4895026;29;20512;-61
2022/01/04 05:05:46;;;;;;;4.47;1.10;;;;;;;17.65;56.63;99759.59;4895579;29;20043;-61
2022/01/04 05:08:11;;;;;;;6.55;1.10;;;;;;;17.57;56.52;99744.47;4895155;29;20078;-61
2022/01/04 05:10:37;;;;;;;3.42;0.98;;;;;;;17.64;56.80;99733.22;4903565;29;20480;-61
2022/01/04 05:13:02;;;;;;;7.10;1.30;;;;;;;17.55;56.61;99725.25;4914899;29;20040;-61
2022/01/04 05:15:28;;;;;;;5.40;1.27;;;;;;;17.57;56.25;99722.44;4933429;29;20055;-61
2022/01/04 05:17:53;;;;;;;5.65;1.10;;;;;;;17.55;56.54;99733.22;4933353;29;20531;-61
2022/01/04 05:20:18;;;;;;;5.75;1.30;;;;;;;17.51;56.65;99731.03;4933029;29;20043;-61
2022/01/04 05:22:44;;;;;;;5.88;1.20;;;;;;;17.57;56.66;99727.75;4915951;29;20127;-61
2022/01/04 05:25:09;;;;;;;4.32;1.13;;;;;;;17.54;56.63;99733.38;4896283;29;20100;-61
2022/01/04 05:27:35;;;;;;;4.68;0.93;;;;;;;17.51;56.64;99723.91;4895498;29;20060;-61
2022/01/04 05:30:00;;;;;;;6.00;0.98;;;;;;;17.46;56.79;99709.50;4895210;29;20047;-61
2022/01/04 05:32:26;;;;;;;5.70;1.30;;;;;;;17.49;56.60;99714.47;4894761;29;20170;-61
2022/01/04 05:34:51;;;;;;;5.90;1.45;;;;;;;17.50;56.63;99716.94;4894937;29;20575;-61
2022/01/04 05:37:16;;;;;;;4.70;1.10;;;;;;;17.54;56.67;99720.94;4894536;29;20047;-61
2022/01/04 05:39:42;;;;;;;4.55;1.08;;;;;;;17.54;56.74;99714.81;4895150;29;20108;-61
2022/01/04 05:42:10;;;;;;;4.60;1.10;;;;;;;17.51;56.44;99720.44;4894583;29;20485;-61
2022/01/04 05:44:36;;;;;;;6.45;1.23;;;;;;;17.47;56.49;99713.78;4894874;29;20168;-61
2022/01/04 05:47:02;;;;;;;6.07;1.10;;;;;;;17.47;56.66;99711.13;4894190;29;20052;-61
2022/01/04 05:49:27;;;;;;;6.55;1.40;;;;;;;17.48;56.76;99710.97;4894913;29;20068;-61
2022/01/04 05:51:53;;;;;;;4.63;1.10;;;;;;;17.50;56.71;99711.66;4894924;29;20516;-61
2022/01/04 05:54:18;;;;;;;5.15;1.25;;;;;;;17.48;56.63;99707.47;4894374;29;20102;-61
2022/01/04 05:56:44;;;;;;;3.85;0.95;;;;;;;17.50;56.64;99718.78;4909379;29;20041;-61
2022/01/04 05:59:09;;;;;;;5.60;1.10;;;;;;;17.46;56.77;99715.63;4894216;29;20489;-61
2022/01/04 06:01:35;;;;;;;6.97;1.17;;;;;;;17.49;56.76;99709.16;4912625;29;20064;-61
2022/01/04 06:04:00;;;;;;;5.30;1.40;;;;;;;17.54;56.62;99702.38;4912132;29;20261;-61
2022/01/04 06:06:25;;;;;;;7.72;1.50;;;;;;;17.60;56.63;99700.91;4912596;29;20492;-61
2022/01/04 06:08:51;;;;;;;6.05;1.20;;;;;;;17.62;56.23;99701.59;4913450;29;20071;-61
2022/01/04 06:11:32;;;;;;;5.90;1.20;;;;;;;17.71;56.30;99697.16;4921858;29;20059;-61
2022/01/04 06:16:42;;;;;;;6.57;1.30;;;;;;;17.92;56.08;99696.72;4931969;29;20095;-61
2022/01/04 06:19:07;;;;;;;4.25;1.35;;;;;;;18.02;55.98;99692.09;4914606;29;20122;-61
2022/01/04 06:21:32;;;;;;;3.38;0.90;;;;;;;18.11;56.53;99692.94;4921378;29;20071;-61
2022/01/04 06:23:58;;;;;;;6.65;1.33;;;;;;;18.18;55.86;99686.81;4893961;29;20044;-61
2022/01/04 06:26:23;;;;;;;4.80;1.15;;;;;;;18.23;56.04;99683.66;4893748;29;20048;-61
2022/01/04 06:28:49;;;;;;;5.78;1.02;;;;;;;18.31;56.18;99688.97;4877590;29;20067;-61
2022/01/04 06:31:14;;;;;;;3.97;0.82;;;;;;;18.36;56.49;99677.84;4893843;29;20507;-61
2022/01/04 06:33:40;;;;;;;6.22;1.02;;;;;;;18.39;56.13;99685.47;4877523;29;20059;-61
2022/01/04 06:36:05;;;;;;;6.97;1.20;;;;;;;18.43;56.03;99677.03;4893654;29;20060;-61
2022/01/04 06:38:31;;;;;;;5.30;1.10;;;;;;;18.47;56.20;99680.19;4894053;29;20226;-61
2022/01/04 06:40:56;;;;;;;4.50;0.80;;;;;;;18.45;56.36;99680.31;4893743;29;20477;-61
2022/01/04 06:43:21;;;;;;;3.97;0.90;;;;;;;18.48;55.83;99679.16;4893536;29;20490;-61
2022/01/04 06:45:47;;;;;;;3.85;1.00;;;;;;;18.54;55.68;99672.38;4893908;29;20064;-61
2022/01/04 06:48:12;;;;;;;4.95;0.90;;;;;;;18.60;55.63;99664.56;4893229;29;20040;-61
2022/01/04 06:50:38;;;;;;;4.93;1.40;;;;;;;18.65;55.45;99653.44;4893873;29;20055;-61
2022/01/04 06:53:03;;;;;;;3.80;0.80;;;;;;;18.68;55.25;99653.94;4908465;29;20111;-61
2022/01/04 06:55:29;;;;;;;4.20;0.82;;;;;;;18.71;55.79;99642.97;4899767;29;20041;-61
2022/01/04 06:57:54;;;;;;;3.05;0.88;;;;;;;18.76;55.39;99644.31;4893801;29;20068;-61
2022/01/04 07:00:20;;;;;;;5.50;0.93;;;;;;;18.78;54.95;99651.13;4893170;29;20113;-61
2022/01/04 07:02:45;;;;;;;5.80;1.00;;;;;;;18.83;54.47;99648.75;4897835;29;20127;-61
2022/01/04 07:05:11;;;;;;;5.57;1.00;;;;;;;18.87;54.98;99652.75;4903270;29;20517;-62
2022/01/04 07:07:36;;;;;;;5.28;1.10;;;;;;;18.89;54.34;99652.56;4903898;29;20485;-57
2022/01/04 07:10:02;;;;;;;15.40;1.15;;;;;;;18.84;55.22;99655.75;4906733;29;20040;-60
2022/01/04 07:12:27;;;;;;;7.13;1.15;;;;;;;18.81;55.97;99653.44;4907960;29;20441;-58
2022/01/04 07:14:52;;;;;;;3.20;0.68;;;;;;;18.84;55.55;99647.78;4893444;29;20052;-60
2022/01/04 07:17:18;;;;;;;5.53;0.95;;;;;;;18.83;56.33;99648.75;4876429;29;20083;-59
2022/01/04 07:19:46;;;;;;;7.43;0.85;;;;;;;18.85;56.03;99649.44;4893342;29;20049;-59
2022/01/04 07:22:11;;;;;;;5.75;0.90;;;;;;;18.87;56.14;99639.47;4877491;29;20072;-61
2022/01/04 07:24:36;;;;;;;6.28;1.10;;;;;;;18.92;55.38;99634.47;4912326;29;20063;-60
2022/01/04 07:27:02;;;;;;;5.57;1.10;;;;;;;18.98;54.71;99645.41;4911843;29;20488;-61
2022/01/04 07:29:27;;;;;;;3.42;0.93;;;;;;;19.01;55.38;99635.25;4904476;29;20040;-61
2022/01/04 07:31:53;;;;;;;6.15;1.00;;;;;;;19.03;54.74;99635.09;4896896;29;20037;-61
2022/01/04 07:34:19;;;;;;;3.20;0.77;;;;;;;19.05;55.40;99633.09;4892703;29;20052;-61
2022/01/04 07:36:44;;;;;;;4.05;0.80;;;;;;;19.07;55.40;99631.09;4897317;29;20123;-61
2022/01/04 07:39:10;;;;;;;5.28;0.77;;;;;;;19.08;55.26;99633.56;4899661;29;20057;-61
2022/01/04 07:41:35;;;;;;;3.83;0.90;;;;;;;19.09;54.91;99645.06;4892604;29;20092;-61
2022/01/04 07:44:01;;;;;;;2.83;0.82;;;;;;;19.11;54.79;99643.03;4899031;29;20073;-61
2022/01/04 07:46:27;;;;;;;4.28;0.85;;;;;;;19.13;55.10;99636.56;4909177;29;20051;-61
2022/01/04 07:48:52;;;;;;;5.47;1.10;;;;;;;19.14;55.28;99645.34;4910483;29;20123;-60
2022/01/04 07:51:18;;;;;;;4.80;1.13;;;;;;;19.09;57.12;99642.41;4912903;29;20083;-59
2022/01/04 07:53:43;;;;;;;4.45;1.10;;;;;;;19.03;56.99;99633.28;4906276;29;20049;-59
2022/01/04 07:56:09;;;;;;;7.50;1.25;;;;;;;19.00;56.97;99636.28;4915237;29;20763;-59
2022/01/04 07:58:34;;;;;;;6.53;1.10;;;;;;;19.03;56.43;99645.75;4913343;29;20074;-59
2022/01/04 08:00:59;;;;;;;5.10;1.02;;;;;;;19.02;56.85;99636.94;4917207;29;20051;-59
2022/01/04 08:03:25;;;;;;;8.98;1.45;;;;;;;18.98;56.24;99648.91;4917084;29;20078;-58
2022/01/04 08:05:50;;;;;;;6.80;1.30;;;;;;;18.98;57.16;99638.25;4916436;29;20576;-59
2022/01/04 08:08:16;;;;;;;10.57;1.10;;;;;;;18.89;55.49;99640.13;4917554;29;20516;-58
2022/01/04 08:10:42;;;;;;;9.23;1.42;;;;;;;18.97;55.87;99649.09;4920588;29;20055;-60
2022/01/04 08:13:07;;;;;;;7.43;2.10;;;;;;;19.01;56.31;99645.06;4925641;29;20039;-60
2022/01/04 08:15:33;;;;;;;7.47;1.90;;;;;;;19.01;56.94;99651.22;4914981;29;20040;-59
2022/01/04 08:17:58;;;;;;;7.07;1.33;;;;;;;19.00;57.24;99648.75;4897732;29;20076;-59
2022/01/04 08:20:24;;;;;;;9.65;1.55;;;;;;;18.99;56.72;99647.91;4897909;29;20151;-59
2022/01/04 08:22:49;;;;;;;6.70;1.13;;;;;;;18.95;56.71;99652.72;4908046;29;20039;-59
2022/01/04 08:25:15;;;;;;;7.47;1.35;;;;;;;18.92;56.83;99652.22;4916062;29;20083;-59
2022/01/04 08:27:41;;;;;;;7.85;1.20;;;;;;;18.90;56.94;99672.84;4916966;29;20047;-59
2022/01/04 08:30:09;;;;;;;8.13;1.15;;;;;;;18.87;56.45;99673.19;4916856;29;20572;-59
2022/01/04 08:32:34;;;;;;;6.68;1.08;;;;;;;18.84;56.57;99677.00;4917718;29;20047;-59
2022/01/04 08:35:00;;;;;;;7.50;1.50;;;;;;;18.81;56.46;99676.53;4917611;29;20416;-59
2022/01/04 08:37:26;;;;;;;8.93;1.83;;;;;;;18.77;56.75;99684.00;4917615;29;20563;-59
2022/01/04 08:39:52;;;;;;;7.53;1.20;;;;;;;18.77;56.50;99685.81;4917171;29;20623;-59
2022/01/04 08:42:17;;;;;;;7.63;1.40;;;;;;;18.75;57.37;99682.50;4917519;29;20080;-59
2022/01/04 08:44:43;;;;;;;7.38;1.45;;;;;;;18.71;56.77;99677.50;4917881;29;20396;-59
2022/01/04 08:47:09;;;;;;;13.52;1.40;;;;;;;18.70;56.45;99681.13;4916402;29;20416;-59
2022/01/04 08:49:34;;;;;;;5.88;1.45;;;;;;;18.68;56.76;99693.78;4914605;29;20133;-59
2022/01/04 08:52:01;;;;;;;8.85;1.40;;;;;;;18.65;56.54;99686.16;4905219;29;20049;-59
2022/01/04 08:54:26;;;;;;;6.30;1.30;;;;;;;18.64;57.11;99673.84;4895452;29;20052;-59
2022/01/04 08:56:54;;;;;;;9.07;1.48;;;;;;;18.63;56.44;99677.50;4895832;29;20032;-59
2022/01/04 08:59:19;;;;;;;4.88;1.05;;;;;;;18.65;56.50;99685.31;4895294;29;20033;-60
2022/01/04 09:01:45;;;;;;;8.07;1.45;;;;;;;18.63;56.58;99696.09;4896060;29;20485;-59
2022/01/04 09:04:10;;;;;;;7.78;1.38;;;;;;;18.58;56.38;99690.44;4895319;29;20478;-59
2022/01/04 09:06:35;;;;;;;8.45;1.52;;;;;;;18.57;56.84;99698.59;4895816;29;20045;-59
2022/01/04 09:09:01;;;;;;;8.63;1.55;;;;;;;18.59;56.65;99692.13;4895169;29;20048;-61
2022/01/04 09:11:26;;;;;;;7.32;1.60;;;;;;;18.57;56.40;99695.94;4916366;29;20051;-58
2022/01/04 09:14:00;;;;;;;6.38;1.25;;;;;;;18.55;55.90;99688.16;4933215;29;20054;-59
2022/01/04 09:19:24;;;;;;;8.35;1.40;;;;;;;18.49;56.37;99710.06;4892249;29;20783;-59
2022/01/04 09:21:49;;;;;;;5.65;0.93;;;;;;;18.51;56.54;99708.06;4856044;29;20050;-59
2022/01/04 09:24:15;;;;;;;7.40;1.55;;;;;;;18.50;56.46;99709.88;4854914;29;20414;-59
2022/01/04 09:26:40;;;;;;;8.40;1.40;;;;;;;18.49;56.40;99702.91;4855444;29;20518;-59
2022/01/04 09:29:05;;;;;;;9.30;1.55;;;;;;;18.45;56.29;99703.41;4854957;29;20077;-59
2022/01/04 09:31:31;;;;;;;5.43;1.08;;;;;;;18.49;56.30;99707.41;4855444;29;20932;-59
2022/01/04 09:33:57;;;;;;;7.32;1.20;;;;;;;18.49;56.46;99712.72;4855551;29;20061;-58
2022/01/04 09:36:23;;;;;;;5.70;1.15;;;;;;;18.47;56.33;99710.22;4855102;29;20049;-58
2022/01/04 09:38:48;;;;;;;6.75;1.25;;;;;;;18.45;55.96;99711.38;4855493;29;20037;-59
2022/01/04 09:41:13;;;;;;;7.82;1.40;;;;;;;18.47;56.25;99699.59;4854884;29;20049;-58
2022/01/04 09:43:39;;;;;;;5.57;1.10;;;;;;;18.39;56.31;99707.53;4855263;29;20986;-59
2022/01/04 09:46:04;;;;;;;6.07;1.10;;;;;;;18.38;55.43;99710.38;4854799;29;20045;-60
2022/01/04 09:48:30;;;;;;;4.43;1.02;;;;;;;18.42;56.20;99715.19;4854917;29;20561;-59
2022/01/04 09:50:56;;;;;;;7.88;1.23;;;;;;;18.40;56.04;99724.34;4857819;29;20104;-58
2022/01/04 09:53:22;;;;;;;4.40;0.88;;;;;;;18.38;56.07;99724.47;4857760;29;20136;-59
2022/01/04 09:55:49;;;;;;;4.78;1.10;;;;;;;18.39;55.57;99727.97;4874695;29;20147;-59
2022/01/04 09:58:15;;;;;;;5.75;1.30;;;;;;;18.38;55.91;99723.66;4894200;29;20048;-59
2022/01/04 10:00:41;;;;;;;6.30;0.90;;;;;;;18.39;55.67;99726.13;4877406;29;20036;-59
2022/01/04 10:03:12;;;;;;;4.50;0.88;;;;;;;18.42;55.46;99731.13;4894111;29;20044;-59
2022/01/04 10:05:37;;;;;;;4.93;1.00;;;;;;;18.40;55.39;99734.94;4894578;29;20497;-59
2022/01/04 10:08:08;;;;;;;4.05;0.73;;;;;;;18.34;55.76;99739.09;4894065;29;20196;-60
2022/01/04 10:10:34;;;;;;;4.45;1.00;;;;;;;18.36;55.13;99744.22;4897289;29;20510;-59
2022/01/04 10:13:01;;;;;;;4.28;0.80;;;;;;;18.35;55.44;99742.56;4877509;29;20075;-59
2022/01/04 10:15:39;;;;;;;6.80;1.10;;;;;;;18.23;55.31;99740.22;4894187;29;20045;-58
2022/01/04 10:18:14;;;;;;;8.73;1.02;;;;;;;18.15;54.56;99740.22;4893532;29;20043;-59
2022/01/04 10:20:47;;;;;;;5.13;0.90;;;;;;;18.18;55.44;99739.06;4896170;29;20055;-59
2022/01/04 10:23:17;;;;;;;4.70;0.80;;;;;;;18.21;55.09;99744.06;4907274;29;20044;-59
2022/01/04 10:25:42;;;;;;;5.07;0.95;;;;;;;18.24;55.46;99741.06;4912462;29;20048;-59
2022/01/04 10:28:08;;;;;;;3.80;1.02;;;;;;;18.25;55.70;99740.91;4895619;29;20127;-59
2022/01/04 10:30:34;;;;;;;3.13;0.80;;;;;;;18.24;55.44;99741.06;4911961;29;20048;-59
2022/01/04 10:33:09;;;;;;;4.88;0.80;;;;;;;18.21;55.63;99736.09;4910082;29;20036;-59
2022/01/04 10:35:34;;;;;;;3.35;0.55;;;;;;;18.21;55.24;99728.97;4925774;29;20044;-59
2022/01/04 10:38:29;;;;;;;3.80;0.75;;;;;;;18.16;55.21;99741.06;4908551;29;20173;-59
2022/01/04 10:40:59;;;;;;;5.28;0.95;;;;;;;18.20;55.10;99739.72;4890408;29;20068;-59
2022/01/04 10:43:27;;;;;;;3.75;0.77;;;;;;;18.17;54.97;99732.09;4911317;29;20493;-59
2022/01/04 10:45:53;;;;;;;4.45;0.90;;;;;;;18.18;55.02;99744.38;4905717;29;20048;-59
2022/01/04 10:48:18;;;;;;;4.50;0.90;;;;;;;18.19;55.29;99746.84;4898491;29;20048;-58
2022/01/04 10:50:46;;;;;;;3.55;0.80;;;;;;;18.20;55.17;99745.03;4907167;29;20036;-59
2022/01/04 10:53:19;;;;;;;3.60;0.75;;;;;;;18.20;55.13;99745.84;4903066;29;20047;-58
2022/01/04 10:55:46;;;;;;;3.22;0.80;;;;;;;18.15;55.15;99748.19;4911949;29;20036;-58
2022/01/04 10:58:19;;;;;;;3.13;0.50;;;;;;;18.10;54.69;99739.88;4911277;29;20549;-59
2022/01/04 11:00:52;;;;;;;4.53;0.70;;;;;;;18.13;54.54;99752.81;4911254;29;20492;-59
2022/01/04 11:03:25;;;;;;;4.07;0.80;;;;;;;18.11;54.56;99757.44;4911288;29;20063;-59
2022/01/04 11:05:55;;;;;;;3.53;0.70;;;;;;;18.12;54.94;99759.13;4912162;29;20047;-59
2022/01/04 11:08:20;;;;;;;3.65;0.57;;;;;;;18.09;54.77;99775.38;4911080;29;20131;-59
2022/01/04 11:10:45;;;;;;;3.40;0.60;;;;;;;18.04;55.05;99770.53;4915481;29;20791;-59
2022/01/04 11:13:11;;;;;;;4.20;0.63;;;;;;;18.02;54.80;99769.06;4912287;29;20043;-59
2022/01/04 11:15:36;;;;;;;4.25;0.65;;;;;;;17.99;55.37;99772.88;4912012;29;20055;-59
2022/01/04 11:18:02;;;;;;;4.78;0.80;;;;;;;17.95;55.31;99778.63;4919475;29;20389;-60
2022/01/04 11:20:27;;;;;;;3.92;0.60;;;;;;;17.95;54.82;99765.38;4930814;29;20135;-59
2022/01/04 11:22:55;;;;;;;3.80;0.75;;;;;;;17.97;54.90;99774.00;4930799;29;20047;-59
2022/01/04 11:25:21;;;;;;;1.83;0.60;;;;;;;17.95;55.12;99783.94;4913412;29;20039;-59
2022/01/04 11:27:47;;;;;;;5.45;0.70;;;;;;;17.90;55.16;99791.56;4920521;29;20382;-59
2022/01/04 11:30:17;;;;;;;4.22;0.70;;;;;;;17.88;54.33;99801.50;4898392;29;20074;-59
2022/01/04 11:32:43;;;;;;;;;;;;;;;17.84;54.76;99802.81;4908526;29;20496;-59
2022/01/04 11:35:20;;;;;;;2.05;0.50;;;;;;;17.84;55.15;99810.78;4911140;29;20014;-59